Time;durP1;ratioP1;P1;durP2;ratioP2;P2;SDS_P1;SDS_P2;PMS_P1;PMS_P2;Temp;Humidity;BMP_temperature;BMP_pressure;BME280_temperature;BME280_humidity;BME280_pressure;Samples;Min_cycle;Max_cycle;Signal;HPM_P1;HPM_P2
2021/04/20 00:02:16;;;;;;;36.83;22.97;;;8.80;95.90;;;;;;5045999;28;20032;-84
2021/04/20 00:04:42;;;;;;;33.07;21.93;;;8.70;95.90;;;;;;5046251;28;20124;-84
2021/04/20 00:07:08;;;;;;;34.37;23.13;;;8.80;96.00;;;;;;5047735;28;20036;-85
2021/04/20 00:09:34;;;;;;;39.20;22.87;;;8.90;95.90;;;;;;5045942;28;20056;-84
2021/04/20 00:12:00;;;;;;;32.97;21.73;;;8.80;95.80;;;;;;5046366;28;20037;-84
2021/04/20 00:14:26;;;;;;;33.43;22.37;;;8.90;95.80;;;;;;5064896;28;20049;-86
2021/04/20 00:16:51;;;;;;;36.17;22.63;;;8.90;95.70;;;;;;5066606;28;20039;-85
2021/04/20 00:19:17;;;;;;;34.23;21.93;;;8.90;95.70;;;;;;5061474;28;20347;-84
2021/04/20 00:21:43;;;;;;;36.47;22.50;;;8.90;95.40;;;;;;5052907;28;20048;-85
2021/04/20 00:24:09;;;;;;;34.50;22.07;;;8.90;95.60;;;;;;5052001;28;20033;-85
2021/04/20 00:26:35;;;;;;;32.80;21.20;;;8.80;95.80;;;;;;5050478;28;20116;-84
2021/04/20 00:29:00;;;;;;;32.17;21.07;;;8.80;95.60;;;;;;5046403;28;20543;-85
2021/04/20 00:31:26;;;;;;;36.07;21.93;;;8.70;95.60;;;;;;5066628;28;20049;-85
2021/04/20 00:33:52;;;;;;;32.80;21.07;;;8.70;95.60;;;;;;5047445;28;20025;-85
2021/04/20 00:36:18;;;;;;;31.47;20.53;;;8.60;95.80;;;;;;5040763;28;20055;-84
2021/04/20 00:38:43;;;;;;;28.57;19.67;;;8.50;95.70;;;;;;5038790;28;20038;-85
2021/04/20 00:41:12;;;;;;;28.27;19.23;;;8.50;95.80;;;;;;5038728;28;20065;-84
2021/04/20 00:43:44;;;;;;;29.02;19.00;;;8.50;96.10;;;;;;5038463;28;20029;-84
2021/04/20 00:46:11;;;;;;;30.90;20.07;;;8.40;96.30;;;;;;5036739;28;20036;-84
2021/04/20 00:48:37;;;;;;;32.87;18.90;;;8.40;96.20;;;;;;5038895;28;20084;-84
2021/04/20 00:51:04;;;;;;;29.80;19.23;;;8.30;96.20;;;;;;5038187;28;20493;-85
2021/04/20 00:53:29;;;;;;;32.93;20.43;;;8.40;96.20;;;;;;5037057;28;20087;-85
2021/04/20 00:55:55;;;;;;;32.43;20.07;;;8.30;96.30;;;;;;5036329;28;20108;-84
2021/04/20 00:58:21;;;;;;;31.80;19.63;;;8.30;96.20;;;;;;5036664;28;20026;-84
2021/04/20 01:00:48;;;;;;;34.40;19.83;;;8.20;96.30;;;;;;5038238;28;20022;-84
2021/04/20 01:03:14;;;;;;;31.07;20.13;;;8.30;96.20;;;;;;5037393;28;20033;-84
2021/04/20 01:05:40;;;;;;;29.87;19.57;;;8.30;96.20;;;;;;5039112;28;20069;-85
2021/04/20 01:08:08;;;;;;;31.70;19.70;;;8.30;95.90;;;;;;5038825;28;20033;-85
2021/04/20 01:10:37;;;;;;;29.97;18.63;;;8.40;95.80;;;;;;5038704;28;20059;-85
2021/04/20 01:13:04;;;;;;;30.90;19.75;;;8.30;95.50;;;;;;5038506;28;20089;-84
2021/04/20 01:15:31;;;;;;;28.63;19.10;;;8.30;95.60;;;;;;5037465;28;20132;-84
2021/04/20 01:18:07;;;;;;;31.10;19.43;;;8.30;95.90;;;;;;5036797;28;20029;-86
2021/04/20 01:20:33;;;;;;;30.37;19.07;;;8.20;95.60;;;;;;5035913;28;20033;-84
2021/04/20 01:22:59;;;;;;;31.07;19.60;;;8.30;95.70;;;;;;5038653;28;20064;-86
2021/04/20 01:25:25;;;;;;;28.47;18.17;;;8.30;95.90;;;;;;5037626;28;20036;-83
2021/04/20 01:27:51;;;;;;;27.93;17.23;;;8.20;95.80;;;;;;5038594;28;20112;-84
2021/04/20 01:30:17;;;;;;;28.57;17.90;;;8.20;95.50;;;;;;5036636;28;20112;-84
2021/04/20 01:32:43;;;;;;;28.77;16.80;;;8.10;95.40;;;;;;5038614;28;20029;-84
2021/04/20 01:35:11;;;;;;;28.40;17.53;;;8.00;95.60;;;;;;5037644;28;20067;-84
2021/04/20 01:37:38;;;;;;;26.20;16.98;;;7.90;95.70;;;;;;5035747;28;20035;-85
2021/04/20 01:40:06;;;;;;;25.03;16.43;;;7.80;95.80;;;;;;5035914;28;20061;-84
2021/04/20 01:42:33;;;;;;;27.30;16.57;;;8.00;95.60;;;;;;5034937;28;20033;-84
2021/04/20 01:44:59;;;;;;;25.50;15.87;;;8.10;95.30;;;;;;5037783;28;20068;-86
2021/04/20 01:47:25;;;;;;;26.23;15.47;;;8.00;95.50;;;;;;5036452;28;20030;-84
2021/04/20 01:49:51;;;;;;;24.90;15.47;;;7.90;95.60;;;;;;5051579;28;20091;-85
2021/04/20 01:52:17;;;;;;;24.80;16.57;;;7.80;95.70;;;;;;5036180;28;20075;-84
2021/04/20 01:54:42;;;;;;;25.23;15.23;;;7.80;95.50;;;;;;5036737;28;20025;-84
2021/04/20 01:57:10;;;;;;;23.77;15.27;;;7.80;95.50;;;;;;5038064;28;20037;-85
2021/04/20 01:59:36;;;;;;;26.30;16.33;;;7.70;95.50;;;;;;5037103;28;20029;-84
2021/04/20 02:02:03;;;;;;;27.93;15.90;;;7.70;95.50;;;;;;5036767;28;20029;-85
2021/04/20 02:04:29;;;;;;;26.33;16.67;;;7.60;95.80;;;;;;5036983;28;20045;-84
2021/04/20 02:06:55;;;;;;;25.73;16.57;;;7.70;95.50;;;;;;5036710;28;20032;-85
2021/04/20 02:09:21;;;;;;;25.70;16.07;;;7.80;95.30;;;;;;5035798;28;20378;-84
2021/04/20 02:11:47;;;;;;;27.17;16.80;;;7.70;95.50;;;;;;5037856;28;20024;-84
2021/04/20 02:14:12;;;;;;;26.27;16.93;;;7.70;95.50;;;;;;5035904;28;20025;-84
2021/04/20 02:16:41;;;;;;;29.97;16.90;;;7.70;95.50;;;;;;5038097;28;20413;-84
2021/04/20 02:19:07;;;;;;;26.43;16.47;;;7.60;95.70;;;;;;5034844;28;20040;-85
2021/04/20 02:21:34;;;;;;;27.70;16.87;;;7.60;95.60;;;;;;5036300;28;20029;-84
2021/04/20 02:24:01;;;;;;;28.63;16.87;;;7.60;95.50;;;;;;5031639;28;20116;-84
2021/04/20 02:26:37;;;;;;;27.50;16.40;;;7.60;95.60;;;;;;5030529;28;20107;-84
2021/04/20 02:29:05;;;;;;;25.37;16.10;;;7.50;95.70;;;;;;5031510;28;20521;-84
2021/04/20 02:31:36;;;;;;;27.00;16.47;;;7.50;95.80;;;;;;5047305;28;20021;-84
2021/04/20 02:34:09;;;;;;;26.80;16.73;;;7.50;95.60;;;;;;5030036;28;20117;-84
2021/04/20 02:36:41;;;;;;;25.80;16.23;;;7.50;95.60;;;;;;5031627;28;20119;-84
2021/04/20 02:39:07;;;;;;;27.27;16.53;;;7.50;95.60;;;;;;5029362;28;20070;-84
2021/04/20 02:41:34;;;;;;;24.60;15.90;;;7.40;95.60;;;;;;5030168;28;20029;-84
2021/04/20 02:44:00;;;;;;;25.20;15.60;;;7.40;95.60;;;;;;5031724;28;20144;-84
2021/04/20 02:46:27;;;;;;;27.63;15.73;;;7.40;95.70;;;;;;5030328;28;20021;-84
2021/04/20 02:48:53;;;;;;;24.83;15.53;;;7.40;95.60;;;;;;5029760;28;20025;-84
2021/04/20 02:51:19;;;;;;;23.03;14.90;;;7.30;95.60;;;;;;5046733;28;20048;-84
2021/04/20 02:53:45;;;;;;;24.57;15.70;;;7.30;95.60;;;;;;5029938;28;20573;-84
2021/04/20 02:56:14;;;;;;;25.43;15.70;;;7.20;95.80;;;;;;5031301;28;20022;-84
2021/04/20 02:58:40;;;;;;;26.13;15.17;;;7.30;95.70;;;;;;5030109;28;20351;-84
2021/04/20 03:01:11;;;;;;;25.73;15.83;;;7.40;95.50;;;;;;5030564;28;20018;-84
2021/04/20 03:03:38;;;;;;;26.93;15.97;;;7.30;95.30;;;;;;5028992;28;20112;-84
2021/04/20 03:06:05;;;;;;;24.07;14.57;;;7.30;95.30;;;;;;5029602;28;20113;-85
2021/04/20 03:08:31;;;;;;;23.07;14.87;;;7.30;95.20;;;;;;5029148;28;20121;-85
2021/04/20 03:11:03;;;;;;;24.37;14.63;;;7.30;95.20;;;;;;5028682;28;20477;-85
2021/04/20 03:13:30;;;;;;;23.67;14.70;;;7.30;95.20;;;;;;5030581;28;20109;-87
2021/04/20 03:15:56;;;;;;;23.17;14.80;;;7.30;95.30;;;;;;5031071;28;20104;-84
2021/04/20 03:18:22;;;;;;;21.97;14.47;;;7.30;95.10;;;;;;5045660;28;20033;-85
2021/04/20 03:20:50;;;;;;;22.87;13.80;;;7.20;95.10;;;;;;5028463;28;20391;-85
2021/04/20 03:23:17;;;;;;;22.33;14.23;;;7.20;95.20;;;;;;5028882;28;20021;-86
2021/04/20 03:25:46;;;;;;;23.07;14.20;;;7.10;95.30;;;;;;5028809;28;20525;-85
2021/04/20 03:28:15;;;;;;;22.08;14.18;;;7.00;95.40;;;;;;5029144;28;20032;-84
2021/04/20 03:30:41;;;;;;;21.23;13.10;;;7.00;95.30;;;;;;5029836;28;20121;-85
2021/04/20 03:33:21;;;;;;;28.53;14.83;;;7.00;95.50;;;;;;5030844;28;20167;-82
2021/04/20 03:35:50;;;;;;;24.33;14.83;;;7.00;96.00;;;;;;5033829;28;20039;-86
2021/04/20 03:38:38;;;;;;;24.00;14.38;;;6.70;95.90;;;;;;5029131;28;20397;-84
2021/04/20 03:41:14;;;;;;;23.97;14.63;;;6.60;96.50;;;;;;5029859;28;20033;-84
2021/04/20 03:43:43;;;;;;;22.87;14.07;;;6.60;96.50;;;;;;5028937;28;20057;-84
2021/04/20 03:46:20;;;;;;;22.40;14.18;;;6.50;96.30;;;;;;5030620;28;20060;-84
2021/04/20 03:49:07;;;;;;;22.87;14.37;;;6.40;96.60;;;;;;5031871;28;20025;-83
2021/04/20 03:51:34;;;;;;;26.17;16.30;;;6.40;96.60;;;;;;5032999;28;20037;-83
2021/04/20 03:54:07;;;;;;;27.07;15.57;;;6.30;96.70;;;;;;5033115;28;20021;-84
2021/04/20 03:56:35;;;;;;;27.43;16.50;;;6.20;96.90;;;;;;5031826;28;20132;-84
2021/04/20 03:59:05;;;;;;;29.70;16.23;;;6.20;96.90;;;;;;5032208;28;20029;-83
2021/04/20 04:01:37;;;;;;;26.10;15.20;;;6.20;97.10;;;;;;5033212;28;20093;-83
2021/04/20 04:04:05;;;;;;;26.40;16.10;;;6.20;97.00;;;;;;5034082;28;20120;-84
2021/04/20 04:06:34;;;;;;;26.20;15.87;;;6.20;97.00;;;;;;5032923;28;20359;-83
2021/04/20 04:09:02;;;;;;;28.77;16.90;;;6.10;97.10;;;;;;5032992;28;20029;-84
2021/04/20 04:11:32;;;;;;;27.60;16.17;;;6.10;97.20;;;;;;5036156;28;20338;-84
2021/04/20 04:13:58;;;;;;;;;;;6.10;97.40;;;;;;5037356;28;20037;-84
2021/04/20 04:16:25;;;;;;;30.83;16.00;;;6.10;97.20;;;;;;5036898;28;20011;-83
2021/04/20 04:18:53;;;;;;;27.87;16.07;;;6.10;97.10;;;;;;5032339;28;20304;-86
2021/04/20 04:21:25;;;;;;;25.77;14.70;;;6.10;97.10;;;;;;5033494;28;20113;-82
2021/04/20 04:23:54;;;;;;;27.00;15.30;;;6.10;96.90;;;;;;5035126;28;20056;-85
2021/04/20 04:26:27;;;;;;;29.58;15.50;;;6.00;96.90;;;;;;5035798;28;20079;-82
2021/04/20 04:28:57;;;;;;;25.07;15.50;;;6.00;97.20;;;;;;5030967;28;20084;-84
2021/04/20 04:31:23;;;;;;;26.67;15.43;;;6.20;96.80;;;;;;5034985;28;20087;-82
2021/04/20 04:33:51;;;;;;;28.50;15.53;;;6.40;96.30;;;;;;5035029;28;20022;-85
2021/04/20 04:36:17;;;;;;;27.03;14.90;;;6.50;96.20;;;;;;5049158;28;20026;-85
2021/04/20 04:38:44;;;;;;;27.43;15.67;;;6.50;96.00;;;;;;5032351;28;20120;-85
2021/04/20 04:41:10;;;;;;;31.43;15.17;;;6.60;95.90;;;;;;5031758;28;20029;-85
2021/04/20 04:43:37;;;;;;;27.20;14.67;;;6.60;95.60;;;;;;5033464;28;20390;-85
2021/04/20 04:46:03;;;;;;;25.90;14.20;;;6.60;95.70;;;;;;5033858;28;20022;-87
2021/04/20 04:48:30;;;;;;;23.23;14.03;;;6.70;95.60;;;;;;5032618;28;20033;-87
2021/04/20 04:51:00;;;;;;;24.73;15.20;;;6.80;95.20;;;;;;5033434;28;20116;-84
2021/04/20 04:53:26;;;;;;;26.93;14.13;;;6.90;95.20;;;;;;5033566;28;20021;-83
2021/04/20 04:56:03;;;;;;;23.13;14.10;;;6.80;95.20;;;;;;5034742;28;20033;-82
2021/04/20 04:58:30;;;;;;;23.70;15.13;;;6.70;95.60;;;;;;5035343;28;20017;-84
2021/04/20 05:00:58;;;;;;;24.90;14.87;;;6.80;95.50;;;;;;5048536;23;20049;-82
2021/04/20 05:03:24;;;;;;;24.07;14.67;;;6.90;95.40;;;;;;5034121;28;20026;-83
2021/04/20 05:05:59;;;;;;;26.37;14.90;;;6.80;95.30;;;;;;5034580;28;20029;-83
2021/04/20 05:08:25;;;;;;;26.73;14.67;;;6.80;95.30;;;;;;5036342;28;20022;-83
2021/04/20 05:10:52;;;;;;;24.47;14.00;;;6.90;95.50;;;;;;5034099;28;20075;-83
2021/04/20 05:13:18;;;;;;;27.53;16.20;;;6.90;95.30;;;;;;5034528;28;20021;-83
2021/04/20 05:15:44;;;;;;;24.73;15.50;;;6.80;95.50;;;;;;5034056;28;20068;-82
2021/04/20 05:18:13;;;;;;;28.30;15.97;;;6.90;95.60;;;;;;5034217;28;20078;-81
2021/04/20 05:20:44;;;;;;;26.60;15.32;;;6.90;95.50;;;;;;5035422;28;20037;-83
2021/04/20 05:23:14;;;;;;;28.67;18.77;;;6.90;95.50;;;;;;5033621;28;20452;-82
2021/04/20 05:25:40;;;;;;;35.60;20.73;;;7.10;95.20;;;;;;5035116;28;20045;-83
2021/04/20 05:28:06;;;;;;;36.67;22.27;;;7.10;95.20;;;;;;5035419;28;20134;-83
2021/04/20 05:30:32;;;;;;;38.23;25.40;;;7.00;95.30;;;;;;5033705;28;20026;-82
2021/04/20 05:32:59;;;;;;;31.23;20.40;;;7.00;95.40;;;;;;5033549;28;20041;-83
2021/04/20 05:35:25;;;;;;;29.57;17.07;;;7.00;95.40;;;;;;5034133;28;20029;-82
2021/04/20 05:37:51;;;;;;;29.30;17.80;;;7.00;95.50;;;;;;5035075;28;20024;-80
2021/04/20 05:40:19;;;;;;;28.57;17.83;;;6.90;95.60;;;;;;5035395;28;20029;-83
2021/04/20 05:42:45;;;;;;;40.17;21.17;;;7.10;95.60;;;;;;5033316;28;20083;-83
2021/04/20 05:45:14;;;;;;;37.47;21.77;;;7.20;95.30;;;;;;5033379;28;20029;-83
2021/04/20 05:47:42;;;;;;;41.85;22.30;;;7.20;95.40;;;;;;5033530;28;20343;-84
2021/04/20 05:50:09;;;;;;;36.23;20.20;;;7.20;95.70;;;;;;5020252;28;20121;-84
2021/04/20 05:52:36;;;;;;;35.53;19.43;;;7.20;95.50;;;;;;5034754;28;20021;-82
2021/04/20 05:55:04;;;;;;;30.50;18.57;;;7.30;95.80;;;;;;5034603;28;20036;-82
2021/04/20 05:57:29;;;;;;;31.60;18.17;;;7.30;95.80;;;;;;5034373;28;20025;-82
2021/04/20 05:59:57;;;;;;;29.60;16.77;;;7.40;95.70;;;;;;5031594;28;20033;-81
2021/04/20 06:02:25;;;;;;;26.67;15.63;;;7.50;95.40;;;;;;5033150;28;20029;-82
2021/04/20 06:04:56;;;;;;;27.92;16.55;;;7.50;95.60;;;;;;5032626;28;20026;-81
2021/04/20 06:07:22;;;;;;;28.43;16.63;;;7.60;95.40;;;;;;5033348;28;20021;-82
2021/04/20 06:09:48;;;;;;;33.07;17.70;;;7.60;95.30;;;;;;5033590;28;20028;-82
2021/04/20 06:12:14;;;;;;;34.47;18.33;;;7.80;95.30;;;;;;5031039;28;20100;-82
2021/04/20 06:14:41;;;;;;;28.83;16.53;;;7.90;95.00;;;;;;5030716;28;20030;-86
2021/04/20 06:17:09;;;;;;;27.80;16.73;;;7.90;95.20;;;;;;5030331;28;20076;-85
2021/04/20 06:19:38;;;;;;;33.37;17.33;;;8.00;95.30;;;;;;5025376;28;20033;-84
2021/04/20 06:22:09;;;;;;;30.27;17.30;;;8.10;95.20;;;;;;5012934;28;20032;-82
2021/04/20 06:24:35;;;;;;;25.13;15.90;;;8.20;94.70;;;;;;5014234;28;20434;-84
2021/04/20 06:27:01;;;;;;;32.77;16.50;;;8.30;94.50;;;;;;5012844;28;20045;-85
2021/04/20 06:29:27;;;;;;;26.90;16.43;;;8.30;94.30;;;;;;5012372;28;20026;-84
2021/04/20 06:31:53;;;;;;;28.07;17.13;;;8.40;94.30;;;;;;5014989;28;20022;-84
2021/04/20 06:34:20;;;;;;;29.87;16.60;;;8.50;94.30;;;;;;5013418;28;20370;-82
2021/04/20 06:36:46;;;;;;;24.50;15.23;;;8.60;94.20;;;;;;5011939;28;20120;-84
2021/04/20 06:39:12;;;;;;;27.23;16.83;;;8.60;94.30;;;;;;5027799;28;20053;-83
2021/04/20 06:41:40;;;;;;;28.83;16.63;;;8.70;94.40;;;;;;5012356;28;20463;-84
2021/04/20 06:44:11;;;;;;;26.33;17.03;;;8.70;94.50;;;;;;5012105;28;20026;-84
2021/04/20 06:46:46;;;;;;;25.73;16.13;;;8.80;94.50;;;;;;5012402;28;20362;-84
2021/04/20 06:49:19;;;;;;;26.00;17.20;;;9.00;94.40;;;;;;5012725;28;20142;-85
2021/04/20 06:51:57;;;;;;;28.93;17.10;;;9.10;94.20;;;;;;5012517;28;20041;-83
2021/04/20 06:54:44;;;;;;;25.97;16.53;;;9.20;94.00;;;;;;5011772;28;20087;-85
2021/04/20 06:57:15;;;;;;;27.87;18.13;;;9.30;94.00;;;;;;5011398;28;20025;-85
2021/04/20 07:00:09;;;;;;;26.97;16.30;;;9.30;93.80;;;;;;5010559;28;20113;-85
2021/04/20 07:02:46;;;;;;;28.03;17.27;;;9.40;93.70;;;;;;5012366;28;20026;-85
2021/04/20 07:05:15;;;;;;;37.00;18.57;;;9.40;93.60;;;;;;5012042;28;20490;-85
2021/04/20 07:07:52;;;;;;;;;;;9.50;93.60;;;;;;5012993;28;20101;-84
2021/04/20 07:10:25;;;;;;;29.10;16.03;;;9.50;93.80;;;;;;5012049;28;19909;-84
2021/04/20 07:12:57;;;;;;;26.23;16.20;;;9.50;93.30;;;;;;5010835;28;20080;-84
2021/04/20 07:15:25;;;;;;;27.73;16.33;;;9.60;93.10;;;;;;5010563;28;20030;-86
2021/04/20 07:18:09;;;;;;;27.23;16.73;;;9.60;93.10;;;;;;5011192;28;20018;-87
2021/04/20 07:20:50;;;;;;;23.83;15.37;;;9.60;92.90;;;;;;5009123;28;20447;-85
2021/04/20 07:23:53;;;;;;;22.40;14.37;;;9.70;92.70;;;;;;5010460;28;20473;-86
2021/04/20 07:26:57;;;;;;;24.90;15.53;;;9.70;92.60;;;;;;5011236;28;20113;-84
2021/04/20 07:29:48;;;;;;;24.00;15.10;;;9.80;92.50;;;;;;5010098;28;20368;-85
2021/04/20 07:32:39;;;;;;;22.77;13.67;;;9.80;92.40;;;;;;5011728;28;20454;-85
2021/04/20 07:35:10;;;;;;;23.43;14.17;;;9.90;92.20;;;;;;5013333;28;20455;-85
2021/04/20 07:37:39;;;;;;;24.13;14.63;;;10.00;92.10;;;;;;5009891;28;20131;-84
2021/04/20 07:40:29;;;;;;;25.60;15.45;;;10.00;93.10;;;;;;5009309;28;20029;-84
2021/04/20 07:42:58;;;;;;;24.97;15.93;;;10.10;92.40;;;;;;5009738;28;20041;-85
2021/04/20 07:45:44;;;;;;;22.65;13.80;;;10.10;92.00;;;;;;5009844;28;20045;-85
2021/04/20 07:48:30;;;;;;;21.93;14.87;;;10.20;92.70;;;;;;5014244;28;20021;-83
2021/04/20 07:51:03;;;;;;;21.83;14.93;;;10.20;91.50;;;;;;5032687;28;20571;-85
2021/04/20 07:53:49;;;;;;;23.63;15.23;;;10.20;91.10;;;;;;5051981;28;20018;-83
2021/04/20 07:56:48;;;;;;;25.60;14.53;;;10.30;91.30;;;;;;5052983;28;20461;-84
2021/04/20 07:59:29;;;;;;;36.90;15.73;;;10.30;91.40;;;;;;5027944;28;20037;-83
2021/04/20 08:02:04;;;;;;;28.47;15.37;;;10.40;91.50;;;;;;5035945;28;20048;-84
2021/04/20 08:04:54;;;;;;;24.37;15.87;;;10.40;91.50;;;;;;5034188;28;20025;-84
2021/04/20 08:07:51;;;;;;;23.30;14.93;;;10.50;91.30;;;;;;5034206;28;20104;-83
2021/04/20 08:10:18;;;;;;;38.23;16.70;;;10.50;91.40;;;;;;5049762;28;20029;-84
2021/04/20 08:13:04;;;;;;;24.63;15.77;;;10.50;91.30;;;;;;5034867;28;20432;-83
2021/04/20 08:15:45;;;;;;;28.47;15.37;;;10.60;91.30;;;;;;5034393;28;20045;-83
2021/04/20 08:18:36;;;;;;;24.47;15.60;;;10.60;92.00;;;;;;5031050;28;20521;-84
2021/04/20 08:21:04;;;;;;;25.73;15.33;;;10.60;91.60;;;;;;5032682;28;20031;-83
2021/04/20 08:23:32;;;;;;;23.87;15.33;;;10.70;91.60;;;;;;5033808;28;20032;-83
2021/04/20 08:26:14;;;;;;;23.33;15.07;;;10.70;91.30;;;;;;5050652;28;20021;-82
2021/04/20 08:28:44;;;;;;;23.33;14.90;;;10.70;91.20;;;;;;5016028;28;20352;-82
2021/04/20 08:31:28;;;;;;;21.00;13.93;;;10.80;91.10;;;;;;5014982;28;20026;-81
2021/04/20 08:34:00;;;;;;;22.10;14.17;;;10.80;90.90;;;;;;5051100;28;20048;-83
2021/04/20 08:36:56;;;;;;;20.07;13.20;;;10.80;90.90;;;;;;5050896;28;20033;-83
2021/04/20 08:39:41;;;;;;;20.97;13.20;;;10.80;90.60;;;;;;5050481;28;20108;-83
2021/04/20 08:42:24;;;;;;;21.97;14.43;;;10.90;90.50;;;;;;5035285;28;20109;-82
2021/04/20 08:45:00;;;;;;;21.67;14.47;;;10.90;90.00;;;;;;5050964;28;20559;-82
2021/04/20 08:47:35;;;;;;;19.93;13.80;;;11.00;90.10;;;;;;5035925;28;20485;-83
2021/04/20 08:50:08;;;;;;;25.03;14.03;;;11.00;90.20;;;;;;5033570;28;20459;-84
2021/04/20 08:52:43;;;;;;;25.90;14.03;;;11.10;89.70;;;;;;5050887;28;20030;-84
2021/04/20 08:55:27;;;;;;;18.93;12.57;;;11.10;89.10;;;;;;5035732;28;20036;-85
2021/04/20 08:58:18;;;;;;;24.63;14.73;;;11.10;88.40;;;;;;5032625;28;20032;-83
2021/04/20 09:00:57;;;;;;;25.90;14.83;;;11.20;87.80;;;;;;5028658;28;20402;-80
2021/04/20 09:03:31;;;;;;;;;;;11.30;88.00;;;;;;5013170;28;20030;-82
2021/04/20 09:06:08;;;;;;;31.50;13.93;;;11.30;88.10;;;;;;5012356;28;20365;-84
2021/04/20 09:08:38;;;;;;;25.67;14.50;;;11.30;87.70;;;;;;5011461;28;20032;-85
2021/04/20 09:11:10;;;;;;;24.60;14.57;;;11.50;87.70;;;;;;5027425;28;20632;-82
2021/04/20 09:14:07;;;;;;;24.47;14.50;;;11.60;86.50;;;;;;5013638;28;20022;-82
2021/04/20 09:16:58;;;;;;;21.63;13.93;;;11.70;86.90;;;;;;5014678;28;20048;-80
2021/04/20 09:19:33;;;;;;;22.43;13.33;;;11.70;85.90;;;;;;5014136;28;20072;-81
2021/04/20 09:22:18;;;;;;;22.20;14.83;;;11.90;85.00;;;;;;5015263;28;20029;-82
2021/04/20 09:24:54;;;;;;;26.80;17.73;;;12.00;85.70;;;;;;5030360;28;20398;-81
2021/04/20 09:27:28;;;;;;;25.93;17.90;;;12.00;85.60;;;;;;5031426;28;20083;-83
2021/04/20 09:29:56;;;;;;;29.63;19.57;;;12.00;86.00;;;;;;5015770;28;20014;-82
2021/04/20 09:32:30;;;;;;;25.00;16.35;;;12.00;85.70;;;;;;5030282;28;20026;-81
2021/04/20 09:34:57;;;;;;;50.53;19.10;;;12.10;84.50;;;;;;5016132;28;20062;-82
2021/04/20 09:37:26;;;;;;;27.43;14.97;;;12.10;84.20;;;;;;5029987;28;20033;-83
2021/04/20 09:39:54;;;;;;;34.07;14.70;;;12.10;83.50;;;;;;5013670;28;20080;-82
2021/04/20 09:42:21;;;;;;;24.73;14.18;;;12.20;83.00;;;;;;5029842;28;20072;-81
2021/04/20 09:45:17;;;;;;;23.80;15.73;;;12.20;83.00;;;;;;5015708;28;20029;-81
2021/04/20 09:48:05;;;;;;;25.13;14.83;;;12.30;82.50;;;;;;5013460;28;20124;-82
2021/04/20 09:50:50;;;;;;;21.23;14.18;;;12.30;83.00;;;;;;5014286;28;20021;-82
2021/04/20 09:53:54;;;;;;;26.30;14.17;;;12.50;82.50;;;;;;5014441;28;20111;-82
2021/04/20 09:56:30;;;;;;;24.50;15.07;;;12.50;81.80;;;;;;5015148;28;20074;-82
2021/04/20 09:58:56;;;;;;;23.37;13.50;;;12.50;81.10;;;;;;5014267;28;20033;-83
2021/04/20 10:01:58;;;;;;;22.77;13.57;;;12.50;81.70;;;;;;5015290;28;20030;-82
2021/04/20 10:04:40;;;;;;;18.73;13.03;;;12.50;81.30;;;;;;5015157;28;20390;-82
2021/04/20 10:07:34;;;;;;;24.07;14.30;;;12.50;81.30;;;;;;5015411;28;20029;-82
2021/04/20 10:10:30;;;;;;;21.30;14.10;;;12.50;81.00;;;;;;5013755;28;20486;-81
2021/04/20 10:13:05;;;;;;;22.53;14.50;;;12.60;80.70;;;;;;5014117;28;20509;-82
2021/04/20 10:16:13;;;;;;;19.58;13.98;;;12.70;80.90;;;;;;5015302;28;20462;-82
2021/04/20 10:18:58;;;;;;;19.67;13.13;;;12.60;80.30;;;;;;5029566;28;20030;-81
2021/04/20 10:21:38;;;;;;;22.67;14.35;;;12.60;80.50;;;;;;5013530;28;20023;-78
2021/04/20 10:24:19;;;;;;;19.77;13.35;;;12.70;81.20;;;;;;5013368;28;20030;-81
2021/04/20 10:26:56;;;;;;;20.27;13.93;;;12.80;79.20;;;;;;5029861;28;20501;-81
2021/04/20 10:29:31;;;;;;;19.90;14.55;;;12.70;79.30;;;;;;5012378;28;20018;-81
2021/04/20 10:32:30;;;;;;;21.83;13.88;;;12.90;79.30;;;;;;5014672;28;20364;-84
2021/04/20 10:34:57;;;;;;;;;;;12.90;78.70;;;;;;5013485;28;20454;-84
2021/04/20 10:37:47;;;;;;;29.25;15.15;;;13.00;77.90;;;;;;5012475;28;20385;-85
2021/04/20 10:40:25;;;;;;;21.92;13.05;;;13.00;77.70;;;;;;5012151;28;20119;-84
2021/04/20 10:42:51;;;;;;;26.02;12.65;;;12.90;79.00;;;;;;5027009;28;20041;-84
2021/04/20 10:45:21;;;;;;;29.25;12.73;;;12.90;78.50;;;;;;5011979;28;20208;-84
2021/04/20 10:47:50;;;;;;;20.45;13.10;;;12.90;78.50;;;;;;5027028;28;20030;-84
2021/04/20 10:50:25;;;;;;;20.65;13.15;;;12.90;78.10;;;;;;5041820;28;20032;-83
2021/04/20 10:53:16;;;;;;;19.15;12.93;;;12.90;78.50;;;;;;5034406;28;20030;-83
2021/04/20 10:55:48;;;;;;;19.67;12.20;;;13.00;79.00;;;;;;5025907;28;20125;-83
2021/04/20 10:58:29;;;;;;;22.40;12.25;;;13.00;78.70;;;;;;5031688;28;20555;-81
2021/04/20 11:00:56;;;;;;;19.13;11.40;;;13.00;78.70;;;;;;5030498;28;20033;-81
2021/04/20 11:03:32;;;;;;;24.45;12.30;;;13.00;78.70;;;;;;5031267;28;20030;-83
2021/04/20 11:05:58;;;;;;;30.30;14.18;;;13.00;79.10;;;;;;5032652;28;20031;-84
2021/04/20 11:08:35;;;;;;;17.30;12.43;;;13.00;78.80;;;;;;5032960;28;20029;-83
2021/04/20 11:11:00;;;;;;;18.98;11.85;;;13.00;78.70;;;;;;5032386;28;20713;-84
2021/04/20 11:13:36;;;;;;;24.85;14.82;;;13.00;78.60;;;;;;5033054;28;20033;-83
2021/04/20 11:40:16;;;;;;;46.70;17.15;;;13.50;75.50;;;;;;5038299;28;20449;-85
2021/04/20 11:42:46;;;;;;;30.95;15.50;;;13.50;76.20;;;;;;5023515;28;20048;-85
2021/04/20 11:45:17;;;;;;;43.72;15.77;;;13.50;76.60;;;;;;5045543;28;20005;-82
2021/04/20 11:48:11;;;;;;;36.45;15.73;;;13.50;77.00;;;;;;5051884;28;20064;-84
2021/04/20 11:50:41;;;;;;;36.63;14.57;;;13.60;76.50;;;;;;5050405;28;20036;-84
2021/04/20 11:53:10;;;;;;;79.68;16.52;;;13.60;76.10;;;;;;5032243;28;20021;-84
2021/04/20 11:55:39;;;;;;;36.60;14.93;;;13.70;75.80;;;;;;5050006;28;20076;-83
2021/04/20 11:58:19;;;;;;;32.83;13.85;;;13.70;75.80;;;;;;5047112;28;20105;-85
2021/04/20 12:00:46;;;;;;;22.48;13.00;;;13.70;75.40;;;;;;5035434;28;20025;-83
2021/04/20 12:03:18;;;;;;;18.88;13.02;;;13.70;75.30;;;;;;5049757;28;20077;-84
2021/04/20 12:05:47;;;;;;;50.33;15.80;;;13.70;74.90;;;;;;5034749;28;20045;-83
2021/04/20 12:08:34;;;;;;;33.28;14.70;;;13.80;75.70;;;;;;5052143;28;20034;-83
2021/04/20 12:11:05;;;;;;;30.60;14.88;;;13.80;74.70;;;;;;5051791;28;20024;-83
2021/04/20 12:13:33;;;;;;;43.20;15.57;;;13.90;74.10;;;;;;5035511;28;20096;-83
2021/04/20 12:16:05;;;;;;;35.30;15.15;;;14.00;73.90;;;;;;5036149;28;20062;-82
2021/04/20 12:18:32;;;;;;;41.97;15.57;;;14.00;74.00;;;;;;5053541;28;20030;-82
2021/04/20 12:21:07;;;;;;;33.08;12.93;;;14.00;73.30;;;;;;5034856;28;20034;-82
2021/04/20 12:23:37;;;;;;;44.47;13.27;;;14.00;72.20;;;;;;5035032;28;20014;-82
2021/04/20 12:26:04;;;;;;;25.38;12.30;;;14.00;73.00;;;;;;5034410;28;20032;-83
2021/04/20 12:28:32;;;;;;;23.10;12.85;;;14.00;73.20;;;;;;5035055;28;20034;-82
2021/04/20 12:30:58;;;;;;;66.65;15.27;;;14.00;73.70;;;;;;5033332;28;20097;-82
2021/04/20 12:33:32;;;;;;;29.58;13.00;;;14.00;73.60;;;;;;5037628;28;20014;-82
2021/04/20 12:36:00;;;;;;;225.00;25.13;;;14.00;73.70;;;;;;5055299;28;20029;-83
2021/04/20 12:38:28;;;;;;;104.40;17.63;;;14.00;73.70;;;;;;5038288;28;20028;-83
2021/04/20 12:41:05;;;;;;;21.00;11.57;;;14.10;72.90;;;;;;5054601;28;20056;-82
2021/04/20 12:43:34;;;;;;;20.45;11.63;;;14.10;73.50;;;;;;5036607;28;20096;-83
2021/04/20 12:46:11;;;;;;;17.35;10.90;;;14.00;72.50;;;;;;5035166;28;20014;-83
2021/04/20 12:48:39;;;;;;;17.77;11.95;;;14.10;73.30;;;;;;5052433;28;20025;-84
2021/04/20 12:51:06;;;;;;;16.33;10.82;;;14.00;72.10;;;;;;5037254;28;20093;-83
2021/04/20 12:53:34;;;;;;;18.80;12.20;;;14.00;72.40;;;;;;5038272;28;20093;-83
2021/04/20 12:56:02;;;;;;;21.23;14.57;;;14.00;72.50;;;;;;5037745;28;20049;-83
2021/04/20 12:58:30;;;;;;;27.10;16.60;;;14.10;73.00;;;;;;5037915;28;20033;-83
2021/04/20 13:01:00;;;;;;;28.10;16.95;;;14.10;74.30;;;;;;5056124;28;20033;-83
2021/04/20 13:03:26;;;;;;;25.13;17.30;;;14.30;73.70;;;;;;5037079;28;20029;-83
2021/04/20 13:05:53;;;;;;;23.60;15.48;;;14.40;72.50;;;;;;5053533;28;20026;-82
2021/04/20 13:08:20;;;;;;;26.45;16.50;;;14.30;72.70;;;;;;5034162;28;20032;-85
2021/04/20 13:10:59;;;;;;;25.15;15.57;;;14.40;73.80;;;;;;5032612;28;20086;-84
2021/04/20 13:13:28;;;;;;;22.15;14.98;;;14.30;73.00;;;;;;5050935;28;20025;-84
2021/04/20 13:16:01;;;;;;;22.58;15.48;;;14.30;72.40;;;;;;5032271;28;20330;-84
2021/04/20 13:18:30;;;;;;;24.77;15.77;;;14.20;72.70;;;;;;5049235;28;20013;-84
2021/04/20 13:21:00;;;;;;;21.08;14.57;;;14.30;73.00;;;;;;5029758;28;20017;-84
2021/04/20 13:23:36;;;;;;;25.05;16.15;;;14.20;73.00;;;;;;5047387;28;20029;-84